createdAt,value
2023-05-14T00:08:04.903Z,75.21
2023-05-14T00:18:08.421Z,75.61
2023-05-14T00:28:11.550Z,76.10
2023-05-14T00:38:19.500Z,76.13
2023-05-14T00:48:23.605Z,76.08
2023-05-14T00:58:27.174Z,76.22
2023-05-14T01:08:42.435Z,76.66
2023-05-14T01:19:42.250Z,76.90
2023-05-14T01:30:23.442Z,76.51
2023-05-14T01:40:27.278Z,76.40
2023-05-14T01:50:30.693Z,76.64
2023-05-14T02:00:33.823Z,77.08
2023-05-14T02:10:37.002Z,77.39
2023-05-14T02:20:40.081Z,77.00
2023-05-14T02:30:43.080Z,76.80
2023-05-14T02:40:46.356Z,78.15
2023-05-14T02:50:52.499Z,78.44
2023-05-14T03:00:55.835Z,78.81
2023-05-14T03:10:59.725Z,78.93
2023-05-14T03:21:04.081Z,78.10
2023-05-14T03:31:07.256Z,78.16
2023-05-14T03:41:10.552Z,78.00
2023-05-14T03:51:13.621Z,78.57
2023-05-14T04:01:16.831Z,79.11
2023-05-14T04:11:19.930Z,79.66
2023-05-14T04:21:23.000Z,79.89
2023-05-14T04:31:26.174Z,79.50
2023-05-14T04:41:29.249Z,79.78
2023-05-14T04:51:32.712Z,79.22
2023-05-14T05:01:35.846Z,79.30
2023-05-14T05:11:39.377Z,79.18
2023-05-14T05:21:42.590Z,78.98
2023-05-14T05:31:45.654Z,77.74
2023-05-14T05:41:48.925Z,76.47
2023-05-14T05:51:52.302Z,75.40
2023-05-14T06:01:55.687Z,74.31
2023-05-14T06:11:59.046Z,72.84
2023-05-14T06:22:02.950Z,69.06
2023-05-14T06:32:06.541Z,64.67
2023-05-14T06:42:09.804Z,60.25
2023-05-14T06:52:12.876Z,57.52
2023-05-14T07:02:16.014Z,55.26
2023-05-14T07:12:25.065Z,52.21
2023-05-14T07:22:30.316Z,49.96
2023-05-14T07:32:36.161Z,47.07
2023-05-14T07:42:43.877Z,44.84
2023-05-14T07:52:47.961Z,42.62
2023-05-14T08:02:52.068Z,42.36
2023-05-14T08:12:55.609Z,40.61
2023-05-14T08:22:58.825Z,42.14
2023-05-14T08:33:01.876Z,42.79
2023-05-14T08:43:06.549Z,43.37
2023-05-14T08:53:09.702Z,44.49
2023-05-14T09:03:13.456Z,44.71
2023-05-14T09:13:16.643Z,44.99
2023-05-14T09:23:19.759Z,44.61
2023-05-14T09:33:29.652Z,43.85
2023-05-14T09:43:32.704Z,43.27
2023-05-14T09:53:35.943Z,42.75
2023-05-14T10:03:39.486Z,41.72
2023-05-14T10:13:47.704Z,42.73
2023-05-14T10:23:51.354Z,41.40
2023-05-14T10:33:55.212Z,40.92
2023-05-14T10:43:59.364Z,40.61
2023-05-14T10:54:02.510Z,41.10
2023-05-14T11:04:06.098Z,41.65
2023-05-14T11:14:10.596Z,41.35
2023-05-14T11:24:13.795Z,41.55
2023-05-14T11:34:17.124Z,41.63
2023-05-14T11:44:20.642Z,41.15
2023-05-14T11:54:26.163Z,40.56
2023-05-14T12:04:31.230Z,40.66
2023-05-14T12:14:38.440Z,40.36
2023-05-14T12:24:43.045Z,40.90
2023-05-14T12:34:46.415Z,39.17
2023-05-14T12:44:49.891Z,39.66
2023-05-14T12:54:53.204Z,38.82
2023-05-14T13:04:56.593Z,38.42
2023-05-14T13:14:59.784Z,38.53
2023-05-14T13:25:03.689Z,38.60
2023-05-14T13:35:07.954Z,38.99
2023-05-14T13:45:11.889Z,39.39
2023-05-14T13:55:15.185Z,40.57
2023-05-14T14:05:18.397Z,41.17
2023-05-14T14:15:21.989Z,41.86
2023-05-14T14:25:25.505Z,41.90
2023-05-14T14:35:28.884Z,42.52
2023-05-14T14:45:32.203Z,42.61
2023-05-14T14:55:35.337Z,42.22
2023-05-14T15:05:38.445Z,42.35
2023-05-14T15:15:41.541Z,40.99
2023-05-14T15:25:44.942Z,40.14
2023-05-14T15:35:48.120Z,40.63
2023-05-14T15:45:51.455Z,40.71
2023-05-14T15:55:55.408Z,41.75
2023-05-14T16:06:23.633Z,42.67
2023-05-14T16:16:27.209Z,43.36
2023-05-14T16:26:30.814Z,42.17
2023-05-14T16:36:34.461Z,43.10
2023-05-14T16:46:37.877Z,43.82
2023-05-14T16:56:48.181Z,45.39
2023-05-14T17:06:53.218Z,47.38
2023-05-14T17:16:57.143Z,49.14
2023-05-14T17:27:00.359Z,50.08
2023-05-14T17:37:03.561Z,51.15
2023-05-14T17:47:08.401Z,49.52
2023-05-14T17:57:11.595Z,49.89
2023-05-14T18:07:14.798Z,47.72
2023-05-14T18:17:18.089Z,49.94
2023-05-14T18:27:21.295Z,49.09
2023-05-14T18:37:26.988Z,47.09
2023-05-14T18:47:35.130Z,47.54
2023-05-14T18:57:38.458Z,49.32
2023-05-14T19:07:41.950Z,51.41
2023-05-14T19:17:45.386Z,54.67
2023-05-14T19:28:13.949Z,58.59
2023-05-14T19:38:21.073Z,61.34
2023-05-14T19:48:49.627Z,63.29
2023-05-14T20:11:33.303Z,67.33
2023-05-14T20:21:36.511Z,66.85
2023-05-14T20:32:05.035Z,67.43
2023-05-14T20:42:08.151Z,67.86
2023-05-14T20:52:11.343Z,67.63
2023-05-14T21:02:14.948Z,67.69
2023-05-14T21:12:19.350Z,67.64
2023-05-14T21:22:22.563Z,67.67
2023-05-14T21:32:25.828Z,68.68
2023-05-14T21:42:53.735Z,68.75
2023-05-14T21:52:57.046Z,69.74
2023-05-14T22:03:00.292Z,70.48
2023-05-14T22:13:03.346Z,70.94
2023-05-14T22:23:06.369Z,70.59
2023-05-14T22:33:09.650Z,70.63
2023-05-14T22:43:12.897Z,70.23
2023-05-14T22:53:15.965Z,70.38
2023-05-14T23:03:19.170Z,71.04
2023-05-14T23:13:48.087Z,74.92
2023-05-14T23:23:51.228Z,77.41
2023-05-14T23:33:54.429Z,79.14
2023-05-14T23:43:57.447Z,79.76
2023-05-14T23:54:00.518Z,80.86
